Hershel W Williams — NHWW — position and weather

sailwx.info

Track history (hours):
 
Tides and Currents Weather Stations Pressure Air Temp Water Temp Dewpoint Dewpoint Depression Visibility Wind Speed Wind Dir Waves Ship Positions

Hershel W Williams

Last reported at 2018-May-09 08:47 UTC. Time now 2018-Jun-18 18:59 UTC.
Position N 32°10' W 117°40'.
Warning: this ship's position is 40 days out of date.

Length 239 m; draft 7.5 m.

Type: Other ship. MMSI: 368926087.

Date/timePositionNaut miles runAvg speedWind from/ knotsBaromVisibWave heightAir tempDewpointWater temp
2018-May-09 08:47N 32°10' W 117°40'1113.6
2018-May-09 07:57N 32°21' W 117°40'613.6
2018-May-09 07:30N 32°27' W 117°40'713.6
2018-May-09 07:00N 32°34' W 117°40'611.3
2018-May-09 06:30N 32°40' W 117°40'2 5.0
2018-May-09 06:00N 32°38' W 117°38'2 3.3
2018-May-09 05:30N 32°38' W 117°36'510.7
2018-May-09 05:00N 32°44' W 117°36'510.7
2018-May-09 04:30N 32°49' W 117°36'510.7
2018-May-09 04:00N 32°54' W 117°36'2 3.7
2018-May-09 03:30N 32°55' W 117°34'510.1
2018-May-09 03:00N 32°50' W 117°34'510.0
2018-May-09 02:30N 32°45' W 117°34'4 8.6
2018-May-09 02:01N 32°43' W 117°29'5 9.8
2018-May-09 01:30N 32°41' W 117°24'5 9.9
2018-May-09 01:00N 32°39' W 117°19'5 9.3
2018-May-09 00:30N 32°37' W 117°14'2 0.1
2018-May-07 21:12N 32°39' W 117°13'1 2.6
2018-May-07 20:38N 32°37' W 117°13'6 7.6
2018-May-07 19:49N 32°39' W 117°20'2 8.0
2018-May-07 19:31N 32°40' W 117°23'4 8.2
2018-May-07 19:00N 32°42' W 117°27'4 7.4
2018-May-07 18:30N 32°45' W 117°31'2 3.9
2018-May-07 18:00N 32°46' W 117°32'3 5.6
2018-May-07 17:30N 32°49' W 117°33'3 5.2
2018-May-07 17:00N 32°51' W 117°34'3 5.9
2018-May-07 16:30N 32°49' W 117°34'3 6.6
2018-May-07 16:00N 32°45' W 117°35'3 6.5
2018-May-07 15:30N 32°42' W 117°35'3 6.6
2018-May-07 15:00N 32°39' W 117°35'3 5.9
2018-May-07 14:30N 32°36' W 117°35'2 4.6
2018-May-07 14:00N 32°38' W 117°36'3 6.5
2018-May-07 13:30N 32°41' W 117°36'510.6
2018-May-07 13:00N 32°47' W 117°36'510.4
2018-May-07 12:30N 32°52' W 117°36'510.5
2018-May-07 12:00N 32°57' W 117°36'2 4.3
2018-May-07 11:30N 32°59' W 117°35'611.1
2018-May-07 11:00N 32°53' W 117°35'611.0
2018-May-07 10:30N 32°48' W 117°35'510.8
2018-May-07 10:00N 32°42' W 117°35'510.5
2018-May-07 09:30N 32°37' W 117°35'3 6.3
2018-May-07 09:00N 32°40' W 117°36'510.8
2018-May-07 08:30N 32°46' W 117°36'510.8
2018-May-07 08:00N 32°51' W 117°36'1 2.0
2018-May-07 07:30N 32°51' W 117°35'510.6
2018-May-07 07:00N 32°45' W 117°35'510.6
2018-May-07 06:30N 32°40' W 117°35'2 4.6
2018-May-07 06:00N 32°42' W 117°36'511.1
2018-May-07 05:30N 32°47' W 117°36'611.1
2018-May-07 05:00N 32°53' W 117°36'5 9.9
2018-May-07 04:30N 32°58' W 117°37'5 9.2
2018-May-07 04:00N 32°53' W 117°38'510.0
2018-May-07 03:30N 32°48' W 117°38'4 7.6
2018-May-07 03:00N 32°45' W 117°36'611.2
2018-May-07 02:30N 32°50' W 117°36'611.5
2018-May-07 02:01N 32°56' W 117°36'3 6.5
2018-May-07 01:30N 32°59' W 117°34'612.9
2018-May-07 01:00N 32°53' W 117°35'612.7
2018-May-07 00:30N 32°46' W 117°35'712.9
2018-May-07 00:00N 32°40' W 117°35'2 4.9
2018-May-06 23:30N 32°38' W 117°33'714.5
2018-May-06 23:00N 32°45' W 117°34'714.5
2018-May-06 22:30N 32°52' W 117°34'713.2
2018-May-06 22:00N 32°59' W 117°35'612.0
2018-May-06 21:30N 32°53' W 117°36'612.9
2018-May-06 21:00N 32°46' W 117°36'713.1
2018-May-06 20:30N 32°40' W 117°36'5 9.3
2018-May-06 20:00N 32°35' W 117°35'714.2
2018-May-06 19:30N 32°43' W 117°35'714.4
2018-May-06 19:00N 32°50' W 117°36'2 4.8
2018-May-06 18:30N 32°52' W 117°34'713.2
2018-May-06 18:00N 32°45' W 117°34'713.4
2018-May-06 17:30N 32°39' W 117°35'5 9.8
2018-May-06 17:00N 32°36' W 117°29'11 5.9
2018-May-06 15:04N 32°36' W 117°16'2 5.1
2018-May-06 14:37N 32°37' W 117°18'110.4
2018-May-06 14:30N 32°37' W 117°20'510.4
2018-May-06 14:00N 32°37' W 117°26'4 8.8
2018-May-06 13:30N 32°36' W 117°31'4 8.1
2018-May-06 13:00N 32°37' W 117°36'510.1
2018-May-06 12:30N 32°37' W 117°42'1 1.6
2018-May-06 12:00N 32°36' W 117°42'5 9.9
2018-May-06 11:30N 32°36' W 117°37'1 2.7
2018-May-06 11:00N 32°37' W 117°35'510.3
2018-May-06 10:30N 32°37' W 117°41'3 6.9
2018-May-06 10:00N 32°40' W 117°41'510.3
2018-May-06 09:30N 32°45' W 117°39'3 5.4
2018-May-06 09:00N 32°43' W 117°41'5 9.8
2018-May-06 08:30N 32°39' W 117°43'1 2.2
2018-May-06 08:00N 32°39' W 117°42'510.5
2018-May-06 07:30N 32°44' W 117°40'510.6
2018-May-06 07:00N 32°49' W 117°38'611.0
2018-May-06 06:30N 32°54' W 117°35'3 5.2
2018-May-06 06:00N 32°57' W 117°36'510.3
2018-May-06 05:30N 32°52' W 117°38'510.0
2018-May-06 05:00N 32°47' W 117°40'510.2
2018-May-06 04:30N 32°42' W 117°42'510.2
2018-May-06 04:00N 32°38' W 117°44'4 8.9
2018-May-06 03:30N 32°36' W 117°49'5 9.8
2018-May-06 03:00N 32°36' W 117°55'510.3
2018-May-06 02:30N 32°35' W 118°01'510.9
2018-May-06 02:00N 32°35' W 118°07'510.9
2018-May-06 01:30N 32°35' W 118°14'611.2
2018-May-06 01:00N 32°34' W 118°20'611.3
2018-May-06 00:30N 32°34' W 118°27'611.2
2018-May-06 00:00N 32°34' W 118°34'712.3
2018-May-05 23:28N 32°33' W 118°42'613.6
2018-May-05 23:00N 32°33' W 118°49'713.7
2018-May-05 22:30N 32°33' W 118°57'713.5
2018-May-05 22:00N 32°33' W 119°05'713.3
2018-May-05 21:30N 32°32' W 119°13'712.8
2018-May-05 21:00N 32°32' W 119°21'812.3
2018-May-05 20:20N 32°31' W 119°30'412.7
2018-May-05 20:00N 32°31' W 119°35'3 5.4
2018-May-05 19:31N 32°33' W 119°34'612.3
2018-May-05 19:00N 32°34' W 119°27'612.2
2018-May-05 18:30N 32°34' W 119°19'611.9
2018-May-05 18:00N 32°35' W 119°12'611.9
2018-May-05 17:30N 32°35' W 119°05'612.2
2018-May-05 17:00N 32°36' W 118°58'712.2
2018-May-05 16:27N 32°36' W 118°50'612.5
2018-May-05 15:57N 32°36' W 118°43'612.9
2018-May-05 15:30N 32°36' W 118°36'712.8
2018-May-05 14:59N 32°36' W 118°28'611.5
2018-May-05 14:30N 32°36' W 118°21'6 9.6
2018-May-05 13:55N 32°36' W 118°15'4 9.7
2018-May-05 13:29N 32°36' W 118°10'5 9.7
2018-May-05 13:00N 32°36' W 118°04'1 1.9
2018-May-05 12:31N 32°36' W 118°05'510.4
2018-May-05 12:00N 32°35' W 118°12'5 9.9
2018-May-05 11:30N 32°36' W 118°17'510.1
2018-May-05 11:00N 32°36' W 118°23'0 0.4
2018-May-05 10:30N 32°36' W 118°23'5 9.9
2018-May-05 10:00N 32°36' W 118°18'5 9.9
2018-May-05 09:30N 32°36' W 118°12'5 9.7
2018-May-05 09:00N 32°37' W 118°06'4 7.9
2018-May-05 08:30N 32°37' W 118°11'5 9.9
2018-May-05 08:01N 32°37' W 118°16'510.1
2018-May-05 07:30N 32°37' W 118°22'1 2.1
2018-May-05 07:00N 32°37' W 118°21'8 9.6
2018-May-05 06:10N 32°36' W 118°12'2 9.8
2018-May-05 05:58N 32°36' W 118°10'510.2
2018-May-05 05:30N 32°36' W 118°04'510.5
2018-May-05 04:59N 32°36' W 117°58'510.7
2018-May-05 04:30N 32°36' W 117°51'510.1
2018-May-05 04:00N 32°35' W 117°45'510.1
2018-May-05 03:30N 32°35' W 117°39'5 9.8
2018-May-05 03:00N 32°35' W 117°34'5 9.2
2018-May-05 02:30N 32°38' W 117°30'5 9.6
2018-May-05 02:00N 32°40' W 117°25'1 2.8
2018-May-05 01:30N 32°40' W 117°23'1 1.8
2018-May-05 01:00N 32°40' W 117°24'2 3.8
2018-May-05 00:30N 32°42' W 117°25'511.0
2018-May-05 00:00N 32°39' W 117°20'  
Track history (hours):
 
Tides and Currents Weather Stations Pressure Air Temp Water Temp Dewpoint Dewpoint Depression Visibility Wind Speed Wind Dir Waves Ship Positions

Hershel W Williams

Last reported at 2018-May-09 08:47 UTC. Time now 2018-Jun-18 18:59 UTC.
Position N 32°10' W 117°40'.
Warning: this ship's position is 40 days out of date.

Length 239 m; draft 7.5 m.

Type: Other ship. MMSI: 368926087.

Date/timePositionNaut miles runAvg speedWind from/ knotsBaromVisibWave heightAir tempDewpointWater temp
2018-May-09 08:47N 32°10' W 117°40'1113.6
2018-May-09 07:57N 32°21' W 117°40'613.6
2018-May-09 07:30N 32°27' W 117°40'713.6
2018-May-09 07:00N 32°34' W 117°40'611.3
2018-May-09 06:30N 32°40' W 117°40'2 5.0
2018-May-09 06:00N 32°38' W 117°38'2 3.3
2018-May-09 05:30N 32°38' W 117°36'510.7
2018-May-09 05:00N 32°44' W 117°36'510.7
2018-May-09 04:30N 32°49' W 117°36'510.7
2018-May-09 04:00N 32°54' W 117°36'2 3.7
2018-May-09 03:30N 32°55' W 117°34'510.1
2018-May-09 03:00N 32°50' W 117°34'510.0
2018-May-09 02:30N 32°45' W 117°34'4 8.6
2018-May-09 02:01N 32°43' W 117°29'5 9.8
2018-May-09 01:30N 32°41' W 117°24'5 9.9
2018-May-09 01:00N 32°39' W 117°19'5 9.3
2018-May-09 00:30N 32°37' W 117°14'2 0.1
2018-May-07 21:12N 32°39' W 117°13'1 2.6
2018-May-07 20:38N 32°37' W 117°13'6 7.6
2018-May-07 19:49N 32°39' W 117°20'2 8.0
2018-May-07 19:31N 32°40' W 117°23'4 8.2
2018-May-07 19:00N 32°42' W 117°27'4 7.4
2018-May-07 18:30N 32°45' W 117°31'2 3.9
2018-May-07 18:00N 32°46' W 117°32'3 5.6
2018-May-07 17:30N 32°49' W 117°33'3 5.2
2018-May-07 17:00N 32°51' W 117°34'3 5.9
2018-May-07 16:30N 32°49' W 117°34'3 6.6
2018-May-07 16:00N 32°45' W 117°35'3 6.5
2018-May-07 15:30N 32°42' W 117°35'3 6.6
2018-May-07 15:00N 32°39' W 117°35'3 5.9
2018-May-07 14:30N 32°36' W 117°35'2 4.6
2018-May-07 14:00N 32°38' W 117°36'3 6.5
2018-May-07 13:30N 32°41' W 117°36'510.6
2018-May-07 13:00N 32°47' W 117°36'510.4
2018-May-07 12:30N 32°52' W 117°36'510.5
2018-May-07 12:00N 32°57' W 117°36'2 4.3
2018-May-07 11:30N 32°59' W 117°35'611.1
2018-May-07 11:00N 32°53' W 117°35'611.0
2018-May-07 10:30N 32°48' W 117°35'510.8
2018-May-07 10:00N 32°42' W 117°35'510.5
2018-May-07 09:30N 32°37' W 117°35'3 6.3
2018-May-07 09:00N 32°40' W 117°36'510.8
2018-May-07 08:30N 32°46' W 117°36'510.8
2018-May-07 08:00N 32°51' W 117°36'1 2.0
2018-May-07 07:30N 32°51' W 117°35'510.6
2018-May-07 07:00N 32°45' W 117°35'510.6
2018-May-07 06:30N 32°40' W 117°35'2 4.6
2018-May-07 06:00N 32°42' W 117°36'511.1
2018-May-07 05:30N 32°47' W 117°36'611.1
2018-May-07 05:00N 32°53' W 117°36'5 9.9
2018-May-07 04:30N 32°58' W 117°37'5 9.2
2018-May-07 04:00N 32°53' W 117°38'510.0
2018-May-07 03:30N 32°48' W 117°38'4 7.6
2018-May-07 03:00N 32°45' W 117°36'611.2
2018-May-07 02:30N 32°50' W 117°36'611.5
2018-May-07 02:01N 32°56' W 117°36'3 6.5
2018-May-07 01:30N 32°59' W 117°34'612.9
2018-May-07 01:00N 32°53' W 117°35'612.7
2018-May-07 00:30N 32°46' W 117°35'712.9
2018-May-07 00:00N 32°40' W 117°35'2 4.9
2018-May-06 23:30N 32°38' W 117°33'714.5
2018-May-06 23:00N 32°45' W 117°34'714.5
2018-May-06 22:30N 32°52' W 117°34'713.2
2018-May-06 22:00N 32°59' W 117°35'612.0
2018-May-06 21:30N 32°53' W 117°36'612.9
2018-May-06 21:00N 32°46' W 117°36'713.1
2018-May-06 20:30N 32°40' W 117°36'5 9.3
2018-May-06 20:00N 32°35' W 117°35'714.2
2018-May-06 19:30N 32°43' W 117°35'714.4
2018-May-06 19:00N 32°50' W 117°36'2 4.8
2018-May-06 18:30N 32°52' W 117°34'713.2
2018-May-06 18:00N 32°45' W 117°34'713.4
2018-May-06 17:30N 32°39' W 117°35'5 9.8
2018-May-06 17:00N 32°36' W 117°29'11 5.9
2018-May-06 15:04N 32°36' W 117°16'2 5.1
2018-May-06 14:37N 32°37' W 117°18'110.4
2018-May-06 14:30N 32°37' W 117°20'510.4
2018-May-06 14:00N 32°37' W 117°26'4 8.8
2018-May-06 13:30N 32°36' W 117°31'4 8.1
2018-May-06 13:00N 32°37' W 117°36'510.1
2018-May-06 12:30N 32°37' W 117°42'1 1.6
2018-May-06 12:00N 32°36' W 117°42'5 9.9
2018-May-06 11:30N 32°36' W 117°37'1 2.7
2018-May-06 11:00N 32°37' W 117°35'510.3
2018-May-06 10:30N 32°37' W 117°41'3 6.9
2018-May-06 10:00N 32°40' W 117°41'510.3
2018-May-06 09:30N 32°45' W 117°39'3 5.4
2018-May-06 09:00N 32°43' W 117°41'5 9.8
2018-May-06 08:30N 32°39' W 117°43'1 2.2
2018-May-06 08:00N 32°39' W 117°42'510.5
2018-May-06 07:30N 32°44' W 117°40'510.6
2018-May-06 07:00N 32°49' W 117°38'611.0
2018-May-06 06:30N 32°54' W 117°35'3 5.2
2018-May-06 06:00N 32°57' W 117°36'510.3
2018-May-06 05:30N 32°52' W 117°38'510.0
2018-May-06 05:00N 32°47' W 117°40'510.2
2018-May-06 04:30N 32°42' W 117°42'510.2
2018-May-06 04:00N 32°38' W 117°44'4 8.9
2018-May-06 03:30N 32°36' W 117°49'5 9.8
2018-May-06 03:00N 32°36' W 117°55'510.3
2018-May-06 02:30N 32°35' W 118°01'510.9
2018-May-06 02:00N 32°35' W 118°07'510.9
2018-May-06 01:30N 32°35' W 118°14'611.2
2018-May-06 01:00N 32°34' W 118°20'611.3
2018-May-06 00:30N 32°34' W 118°27'611.2
2018-May-06 00:00N 32°34' W 118°34'712.3
2018-May-05 23:28N 32°33' W 118°42'613.6
2018-May-05 23:00N 32°33' W 118°49'713.7
2018-May-05 22:30N 32°33' W 118°57'713.5
2018-May-05 22:00N 32°33' W 119°05'713.3
2018-May-05 21:30N 32°32' W 119°13'712.8
2018-May-05 21:00N 32°32' W 119°21'812.3
2018-May-05 20:20N 32°31' W 119°30'412.7
2018-May-05 20:00N 32°31' W 119°35'3 5.4
2018-May-05 19:31N 32°33' W 119°34'612.3
2018-May-05 19:00N 32°34' W 119°27'612.2
2018-May-05 18:30N 32°34' W 119°19'611.9
2018-May-05 18:00N 32°35' W 119°12'611.9
2018-May-05 17:30N 32°35' W 119°05'612.2
2018-May-05 17:00N 32°36' W 118°58'712.2
2018-May-05 16:27N 32°36' W 118°50'612.5
2018-May-05 15:57N 32°36' W 118°43'612.9
2018-May-05 15:30N 32°36' W 118°36'712.8
2018-May-05 14:59N 32°36' W 118°28'611.5
2018-May-05 14:30N 32°36' W 118°21'6 9.6
2018-May-05 13:55N 32°36' W 118°15'4 9.7
2018-May-05 13:29N 32°36' W 118°10'5 9.7
2018-May-05 13:00N 32°36' W 118°04'1 1.9
2018-May-05 12:31N 32°36' W 118°05'510.4
2018-May-05 12:00N 32°35' W 118°12'5 9.9
2018-May-05 11:30N 32°36' W 118°17'510.1
2018-May-05 11:00N 32°36' W 118°23'0 0.4
2018-May-05 10:30N 32°36' W 118°23'5 9.9
2018-May-05 10:00N 32°36' W 118°18'5 9.9
2018-May-05 09:30N 32°36' W 118°12'5 9.7
2018-May-05 09:00N 32°37' W 118°06'4 7.9
2018-May-05 08:30N 32°37' W 118°11'5 9.9
2018-May-05 08:01N 32°37' W 118°16'510.1
2018-May-05 07:30N 32°37' W 118°22'1 2.1
2018-May-05 07:00N 32°37' W 118°21'8 9.6
2018-May-05 06:10N 32°36' W 118°12'2 9.8
2018-May-05 05:58N 32°36' W 118°10'510.2
2018-May-05 05:30N 32°36' W 118°04'510.5
2018-May-05 04:59N 32°36' W 117°58'510.7
2018-May-05 04:30N 32°36' W 117°51'510.1
2018-May-05 04:00N 32°35' W 117°45'510.1
2018-May-05 03:30N 32°35' W 117°39'5 9.8
2018-May-05 03:00N 32°35' W 117°34'5 9.2
2018-May-05 02:30N 32°38' W 117°30'5 9.6
2018-May-05 02:00N 32°40' W 117°25'1 2.8
2018-May-05 01:30N 32°40' W 117°23'1 1.8
2018-May-05 01:00N 32°40' W 117°24'2 3.8
2018-May-05 00:30N 32°42' W 117°25'511.0
2018-May-05 00:00N 32°39' W 117°20'  

Dump ship's entire track history